Unicom:                    122.8

AWOS:                  118.275

Elevation           1458’ MSL

TPA:                   2500’ MSL

06/24:         5003’ L   75’ W

PAPI:       06/Left     24/Left

(Operate lights on unicom freq.)

Traffic Pattern: Left

Beacon: Sunset to Sunrise

Windsock: yes, lighted

Segmented Circle: No

 

Cleveland Center: 126.72/291.65

FSS: Altoona

[Source: ADDS]
METAR
KFKL 271856Z AUTO 25009KT 10SM OVC009 06/04 A3005 RMK AO2 CIG 006V013 SLP186 T00610044 =
KFKL 271720Z 2718/2818 25008KT P6SM BKN007 FM272200 28006KT P6SM BKN025 FM280500 10003KT P6SM BKN200 FM281200 13009KT 6SM RA OVC025 FM281600 15009KT 4SM RA OVC007
TAF
KFKL 271720Z 2718/2818 25008KT P6SM BKN007 FM272200 28006KT P6SM BKN025 FM280500 10003KT P6SM BKN200 FM281200 13009KT 6SM RA OVC025 FM281600 15009KT 4SM RA OVC007 =
[Source: ADDS]
METAR
KDUJ 271853Z AUTO 26008KT 10SM OVC005 05/03 A3002 RMK AO2 SLP177 T00500033 =
KDUJ 271720Z 2718/2818 24008G16KT P6SM VCSH BKN007 FM272000 27009KT P6SM BKN006 FM281000 11007KT P6SM VCSH OVC040 FM281200 12009KT 5SM RA OVC015 FM281700 15010KT 5SM RA OVC005
TAF
KDUJ 271720Z 2718/2818 24008G16KT P6SM VCSH BKN007 FM272000 27009KT P6SM BKN006 FM281000 11007KT P6SM VCSH OVC040 FM281200 12009KT 5SM RA OVC015 FM281700 15010KT 5SM RA OVC005 =

Hangars

Hangars – A/B   $132/$148a month.   Gravel floor/Concrete

Hangar C - Commercial hangar, concrete floor, heated. Call for pricing 814-226-9993.

Tie Downs Available.